Vidéos.

Vous avez récemment participé à un vol avec l’équipe Fly & Fun ? Retrouvez votre nom et prénom dans la liste juste en dessous pour télécharger votre vidéo avec votre mot de passe fourni par l’équipe !

METAR :

LFQA 100200Z AUTO 05007KT CAVOK 25/16 Q1013


vue en direct sur l'aérodrome
mentions légales politique de confidentialité
Cochet Concept
cx